sensor_id;sensor_type;location;lat;lon;timestamp;temperature;humidity
52555;DHT22;38455;52.710;6.502;2023-04-24T00:02:04;10.80;99.90
52555;DHT22;38455;52.710;6.502;2023-04-24T00:04:32;10.70;99.90
52555;DHT22;38455;52.710;6.502;2023-04-24T00:06:57;10.70;99.90
52555;DHT22;38455;52.710;6.502;2023-04-24T00:09:25;10.70;99.90
52555;DHT22;38455;52.710;6.502;2023-04-24T00:11:52;10.70;99.90
52555;DHT22;38455;52.710;6.502;2023-04-24T00:14:18;10.60;99.90
52555;DHT22;38455;52.710;6.502;2023-04-24T00:16:43;10.70;99.90
52555;DHT22;38455;52.710;6.502;2023-04-24T00:19:09;10.70;99.90
52555;DHT22;38455;52.710;6.502;2023-04-24T00:21:37;10.70;99.90
52555;DHT22;38455;52.710;6.502;2023-04-24T00:24:03;10.70;99.90
52555;DHT22;38455;52.710;6.502;2023-04-24T00:26:28;10.70;99.90
52555;DHT22;38455;52.710;6.502;2023-04-24T00:28:54;10.70;99.90
52555;DHT22;38455;52.710;6.502;2023-04-24T00:31:20;10.80;99.90
52555;DHT22;38455;52.710;6.502;2023-04-24T00:33:45;10.70;99.90
52555;DHT22;38455;52.710;6.502;2023-04-24T00:36:11;10.70;99.90
52555;DHT22;38455;52.710;6.502;2023-04-24T00:38:37;10.70;99.90
52555;DHT22;38455;52.710;6.502;2023-04-24T00:41:02;10.70;99.90
52555;DHT22;38455;52.710;6.502;2023-04-24T00:43:28;10.70;99.90
52555;DHT22;38455;52.710;6.502;2023-04-24T00:45:54;10.70;99.90
52555;DHT22;38455;52.710;6.502;2023-04-24T00:48:20;10.70;99.90
52555;DHT22;38455;52.710;6.502;2023-04-24T00:50:46;10.70;99.90
52555;DHT22;38455;52.710;6.502;2023-04-24T00:53:12;10.70;99.90
52555;DHT22;38455;52.710;6.502;2023-04-24T00:55:37;10.70;99.90
52555;DHT22;38455;52.710;6.502;2023-04-24T00:58:03;10.70;99.90
52555;DHT22;38455;52.710;6.502;2023-04-24T01:00:29;10.70;99.90
52555;DHT22;38455;52.710;6.502;2023-04-24T01:02:58;10.70;99.90
52555;DHT22;38455;52.710;6.502;2023-04-24T01:05:24;10.70;99.90
52555;DHT22;38455;52.710;6.502;2023-04-24T01:07:50;10.60;99.90
52555;DHT22;38455;52.710;6.502;2023-04-24T01:10:16;10.60;99.90
52555;DHT22;38455;52.710;6.502;2023-04-24T01:12:43;10.60;99.90
52555;DHT22;38455;52.710;6.502;2023-04-24T01:15:09;10.50;99.90
52555;DHT22;38455;52.710;6.502;2023-04-24T01:17:35;10.40;99.90
52555;DHT22;38455;52.710;6.502;2023-04-24T01:20:01;10.40;99.90
52555;DHT22;38455;52.710;6.502;2023-04-24T01:22:32;10.30;99.90
52555;DHT22;38455;52.710;6.502;2023-04-24T01:24:57;10.30;99.90
52555;DHT22;38455;52.710;6.502;2023-04-24T01:27:23;10.30;99.90
52555;DHT22;38455;52.710;6.502;2023-04-24T01:29:49;10.20;99.90
52555;DHT22;38455;52.710;6.502;2023-04-24T01:32:17;10.20;99.90
52555;DHT22;38455;52.710;6.502;2023-04-24T01:34:43;10.10;99.90
52555;DHT22;38455;52.710;6.502;2023-04-24T01:37:09;10.10;99.90
52555;DHT22;38455;52.710;6.502;2023-04-24T01:39:34;10.10;99.90
52555;DHT22;38455;52.710;6.502;2023-04-24T01:42:00;10.10;99.90
52555;DHT22;38455;52.710;6.502;2023-04-24T01:44:27;10.00;99.90
52555;DHT22;38455;52.710;6.502;2023-04-24T01:46:54;10.10;99.90
52555;DHT22;38455;52.710;6.502;2023-04-24T01:49:20;10.10;99.90
52555;DHT22;38455;52.710;6.502;2023-04-24T01:51:46;10.00;99.90
52555;DHT22;38455;52.710;6.502;2023-04-24T01:54:12;10.00;99.90
52555;DHT22;38455;52.710;6.502;2023-04-24T01:56:41;10.00;99.90
52555;DHT22;38455;52.710;6.502;2023-04-24T01:59:09;9.90;99.90
52555;DHT22;38455;52.710;6.502;2023-04-24T02:01:37;10.00;99.90
52555;DHT22;38455;52.710;6.502;2023-04-24T02:04:03;9.90;99.90
52555;DHT22;38455;52.710;6.502;2023-04-24T02:06:29;9.90;99.90
52555;DHT22;38455;52.710;6.502;2023-04-24T02:08:59;9.90;99.90
52555;DHT22;38455;52.710;6.502;2023-04-24T02:11:25;9.90;99.90
52555;DHT22;38455;52.710;6.502;2023-04-24T02:13:51;9.90;99.90
52555;DHT22;38455;52.710;6.502;2023-04-24T02:16:17;9.90;99.90
52555;DHT22;38455;52.710;6.502;2023-04-24T02:18:43;9.90;99.90
52555;DHT22;38455;52.710;6.502;2023-04-24T02:21:09;9.90;99.90
52555;DHT22;38455;52.710;6.502;2023-04-24T02:23:34;9.90;99.90
52555;DHT22;38455;52.710;6.502;2023-04-24T02:26:00;9.90;99.90
52555;DHT22;38455;52.710;6.502;2023-04-24T02:28:26;10.00;99.90
52555;DHT22;38455;52.710;6.502;2023-04-24T02:30:51;9.90;99.90
52555;DHT22;38455;52.710;6.502;2023-04-24T02:33:17;9.90;99.90
52555;DHT22;38455;52.710;6.502;2023-04-24T02:35:43;9.90;99.90
52555;DHT22;38455;52.710;6.502;2023-04-24T02:38:08;9.90;99.90
52555;DHT22;38455;52.710;6.502;2023-04-24T02:40:34;9.90;99.90
52555;DHT22;38455;52.710;6.502;2023-04-24T02:42:59;9.90;99.90
52555;DHT22;38455;52.710;6.502;2023-04-24T02:45:25;9.90;99.90
52555;DHT22;38455;52.710;6.502;2023-04-24T02:47:51;10.00;99.90
52555;DHT22;38455;52.710;6.502;2023-04-24T02:50:16;9.90;99.90
52555;DHT22;38455;52.710;6.502;2023-04-24T02:52:42;9.90;99.90
52555;DHT22;38455;52.710;6.502;2023-04-24T02:55:08;9.90;99.90
52555;DHT22;38455;52.710;6.502;2023-04-24T02:57:34;9.90;99.90
52555;DHT22;38455;52.710;6.502;2023-04-24T02:59:59;9.90;99.90
52555;DHT22;38455;52.710;6.502;2023-04-24T03:02:25;9.90;99.90
52555;DHT22;38455;52.710;6.502;2023-04-24T03:04:51;9.90;99.90
52555;DHT22;38455;52.710;6.502;2023-04-24T03:07:17;9.90;99.90
52555;DHT22;38455;52.710;6.502;2023-04-24T03:09:46;9.90;99.90
52555;DHT22;38455;52.710;6.502;2023-04-24T03:12:12;9.80;99.90
52555;DHT22;38455;52.710;6.502;2023-04-24T03:14:37;9.90;99.90
52555;DHT22;38455;52.710;6.502;2023-04-24T03:17:03;9.80;99.90
52555;DHT22;38455;52.710;6.502;2023-04-24T03:19:28;9.80;99.90
52555;DHT22;38455;52.710;6.502;2023-04-24T03:21:54;9.80;99.90
52555;DHT22;38455;52.710;6.502;2023-04-24T03:24:20;9.80;99.90
52555;DHT22;38455;52.710;6.502;2023-04-24T03:26:46;9.80;99.90
52555;DHT22;38455;52.710;6.502;2023-04-24T03:29:11;9.90;99.90
52555;DHT22;38455;52.710;6.502;2023-04-24T03:31:37;9.80;99.90
52555;DHT22;38455;52.710;6.502;2023-04-24T03:34:02;9.70;99.90
52555;DHT22;38455;52.710;6.502;2023-04-24T03:36:28;9.80;99.90
52555;DHT22;38455;52.710;6.502;2023-04-24T03:38:54;9.70;99.90
52555;DHT22;38455;52.710;6.502;2023-04-24T03:41:19;9.70;99.90
52555;DHT22;38455;52.710;6.502;2023-04-24T03:43:45;9.70;99.90
52555;DHT22;38455;52.710;6.502;2023-04-24T03:46:10;9.70;99.90
52555;DHT22;38455;52.710;6.502;2023-04-24T03:48:36;9.70;99.90
52555;DHT22;38455;52.710;6.502;2023-04-24T03:51:02;9.70;99.90
52555;DHT22;38455;52.710;6.502;2023-04-24T03:53:28;9.70;99.90
52555;DHT22;38455;52.710;6.502;2023-04-24T03:55:53;9.70;99.90
52555;DHT22;38455;52.710;6.502;2023-04-24T03:58:19;9.70;99.90
52555;DHT22;38455;52.710;6.502;2023-04-24T04:00:45;9.70;99.90
52555;DHT22;38455;52.710;6.502;2023-04-24T04:03:13;9.70;99.90
52555;DHT22;38455;52.710;6.502;2023-04-24T04:05:40;9.70;99.90
52555;DHT22;38455;52.710;6.502;2023-04-24T04:08:05;9.60;99.90
52555;DHT22;38455;52.710;6.502;2023-04-24T04:10:31;9.70;99.90
52555;DHT22;38455;52.710;6.502;2023-04-24T04:12:56;9.60;99.90
52555;DHT22;38455;52.710;6.502;2023-04-24T04:15:22;9.60;99.90
52555;DHT22;38455;52.710;6.502;2023-04-24T04:17:48;9.60;99.90
52555;DHT22;38455;52.710;6.502;2023-04-24T04:20:13;9.60;99.90
52555;DHT22;38455;52.710;6.502;2023-04-24T04:22:39;9.60;99.90
52555;DHT22;38455;52.710;6.502;2023-04-24T04:25:05;9.60;99.90
52555;DHT22;38455;52.710;6.502;2023-04-24T04:27:32;9.50;99.90
52555;DHT22;38455;52.710;6.502;2023-04-24T04:30:03;9.50;99.90
52555;DHT22;38455;52.710;6.502;2023-04-24T04:32:32;9.50;99.90
52555;DHT22;38455;52.710;6.502;2023-04-24T04:35:01;9.40;99.90
52555;DHT22;38455;52.710;6.502;2023-04-24T04:37:33;9.40;99.90
52555;DHT22;38455;52.710;6.502;2023-04-24T04:39:59;9.40;99.90
52555;DHT22;38455;52.710;6.502;2023-04-24T04:42:25;9.40;99.90
52555;DHT22;38455;52.710;6.502;2023-04-24T04:44:52;9.40;99.90
52555;DHT22;38455;52.710;6.502;2023-04-24T04:47:18;9.40;99.90
52555;DHT22;38455;52.710;6.502;2023-04-24T04:49:45;9.30;99.90
52555;DHT22;38455;52.710;6.502;2023-04-24T04:52:10;9.40;99.90
52555;DHT22;38455;52.710;6.502;2023-04-24T04:54:36;9.40;99.90
52555;DHT22;38455;52.710;6.502;2023-04-24T04:57:02;9.40;99.90
52555;DHT22;38455;52.710;6.502;2023-04-24T04:59:27;9.40;99.90
52555;DHT22;38455;52.710;6.502;2023-04-24T05:01:53;9.40;99.90
52555;DHT22;38455;52.710;6.502;2023-04-24T05:04:18;9.40;99.90
52555;DHT22;38455;52.710;6.502;2023-04-24T05:06:44;9.40;99.90
52555;DHT22;38455;52.710;6.502;2023-04-24T05:09:10;9.40;99.90
52555;DHT22;38455;52.710;6.502;2023-04-24T05:11:36;9.40;99.90
52555;DHT22;38455;52.710;6.502;2023-04-24T05:14:01;9.50;99.90
52555;DHT22;38455;52.710;6.502;2023-04-24T05:16:27;9.40;99.90
52555;DHT22;38455;52.710;6.502;2023-04-24T05:18:52;9.40;99.90
52555;DHT22;38455;52.710;6.502;2023-04-24T05:21:18;9.40;99.90
52555;DHT22;38455;52.710;6.502;2023-04-24T05:23:43;9.40;99.90
52555;DHT22;38455;52.710;6.502;2023-04-24T05:26:09;9.40;99.90
52555;DHT22;38455;52.710;6.502;2023-04-24T05:28:35;9.40;99.90
52555;DHT22;38455;52.710;6.502;2023-04-24T05:31:02;9.40;99.90
52555;DHT22;38455;52.710;6.502;2023-04-24T05:33:28;9.50;99.90
52555;DHT22;38455;52.710;6.502;2023-04-24T05:35:54;9.50;99.90
52555;DHT22;38455;52.710;6.502;2023-04-24T05:38:19;9.50;99.90
52555;DHT22;38455;52.710;6.502;2023-04-24T05:40:45;9.50;99.90
52555;DHT22;38455;52.710;6.502;2023-04-24T05:43:11;9.60;99.90
52555;DHT22;38455;52.710;6.502;2023-04-24T05:45:38;9.70;99.90
52555;DHT22;38455;52.710;6.502;2023-04-24T05:48:04;9.70;99.90
52555;DHT22;38455;52.710;6.502;2023-04-24T05:50:29;9.70;99.90
52555;DHT22;38455;52.710;6.502;2023-04-24T05:52:55;9.70;99.90
52555;DHT22;38455;52.710;6.502;2023-04-24T05:55:24;9.90;99.90
52555;DHT22;38455;52.710;6.502;2023-04-24T05:57:50;9.90;99.90
52555;DHT22;38455;52.710;6.502;2023-04-24T06:00:16;9.90;99.90
52555;DHT22;38455;52.710;6.502;2023-04-24T06:02:43;9.90;99.90
52555;DHT22;38455;52.710;6.502;2023-04-24T06:05:08;10.00;99.90
52555;DHT22;38455;52.710;6.502;2023-04-24T06:07:35;10.00;99.90
52555;DHT22;38455;52.710;6.502;2023-04-24T06:10:00;10.00;99.90
52555;DHT22;38455;52.710;6.502;2023-04-24T06:12:26;10.00;99.90
52555;DHT22;38455;52.710;6.502;2023-04-24T06:14:52;10.10;99.90
52555;DHT22;38455;52.710;6.502;2023-04-24T06:17:19;10.10;99.90
52555;DHT22;38455;52.710;6.502;2023-04-24T06:19:45;10.10;99.90
52555;DHT22;38455;52.710;6.502;2023-04-24T06:22:10;10.20;99.90
52555;DHT22;38455;52.710;6.502;2023-04-24T06:24:36;10.20;99.90
52555;DHT22;38455;52.710;6.502;2023-04-24T06:27:02;10.20;99.90
52555;DHT22;38455;52.710;6.502;2023-04-24T06:29:28;10.10;99.90
52555;DHT22;38455;52.710;6.502;2023-04-24T06:31:53;10.10;99.90
52555;DHT22;38455;52.710;6.502;2023-04-24T06:34:19;10.20;99.90
52555;DHT22;38455;52.710;6.502;2023-04-24T06:36:47;10.10;99.90
52555;DHT22;38455;52.710;6.502;2023-04-24T06:39:12;10.00;99.90
52555;DHT22;38455;52.710;6.502;2023-04-24T06:41:38;10.00;99.90
52555;DHT22;38455;52.710;6.502;2023-04-24T06:44:05;9.90;99.90
52555;DHT22;38455;52.710;6.502;2023-04-24T06:46:31;10.00;99.90
52555;DHT22;38455;52.710;6.502;2023-04-24T06:48:56;10.00;99.90
52555;DHT22;38455;52.710;6.502;2023-04-24T06:51:26;10.00;99.90
52555;DHT22;38455;52.710;6.502;2023-04-24T06:53:53;10.10;99.90
52555;DHT22;38455;52.710;6.502;2023-04-24T06:56:19;10.10;99.90
52555;DHT22;38455;52.710;6.502;2023-04-24T06:58:46;10.10;99.90
52555;DHT22;38455;52.710;6.502;2023-04-24T07:01:11;10.20;99.90
52555;DHT22;38455;52.710;6.502;2023-04-24T07:03:37;10.20;99.90
52555;DHT22;38455;52.710;6.502;2023-04-24T07:06:03;10.20;99.90
52555;DHT22;38455;52.710;6.502;2023-04-24T07:08:29;10.20;99.90
52555;DHT22;38455;52.710;6.502;2023-04-24T07:10:59;10.20;99.90
52555;DHT22;38455;52.710;6.502;2023-04-24T07:13:25;10.10;99.90
52555;DHT22;38455;52.710;6.502;2023-04-24T07:15:50;10.20;99.90
52555;DHT22;38455;52.710;6.502;2023-04-24T07:18:18;10.20;99.90
52555;DHT22;38455;52.710;6.502;2023-04-24T07:20:43;10.20;99.90
52555;DHT22;38455;52.710;6.502;2023-04-24T07:23:09;10.30;99.90
52555;DHT22;38455;52.710;6.502;2023-04-24T07:25:35;10.30;99.90
52555;DHT22;38455;52.710;6.502;2023-04-24T07:28:00;10.30;99.90
52555;DHT22;38455;52.710;6.502;2023-04-24T07:30:26;10.30;99.90
52555;DHT22;38455;52.710;6.502;2023-04-24T07:32:54;10.40;99.90
52555;DHT22;38455;52.710;6.502;2023-04-24T07:35:20;10.40;99.90
52555;DHT22;38455;52.710;6.502;2023-04-24T07:37:46;10.40;99.90
52555;DHT22;38455;52.710;6.502;2023-04-24T07:40:12;10.50;99.90
52555;DHT22;38455;52.710;6.502;2023-04-24T07:42:38;10.40;99.90
52555;DHT22;38455;52.710;6.502;2023-04-24T07:45:04;10.40;99.90
52555;DHT22;38455;52.710;6.502;2023-04-24T07:47:31;10.40;99.90
52555;DHT22;38455;52.710;6.502;2023-04-24T07:49:57;10.40;99.90
52555;DHT22;38455;52.710;6.502;2023-04-24T07:52:23;10.50;99.90
52555;DHT22;38455;52.710;6.502;2023-04-24T07:54:49;10.40;99.90
52555;DHT22;38455;52.710;6.502;2023-04-24T07:57:15;10.50;99.90
52555;DHT22;38455;52.710;6.502;2023-04-24T07:59:41;10.50;99.90
52555;DHT22;38455;52.710;6.502;2023-04-24T08:02:07;10.40;99.90
52555;DHT22;38455;52.710;6.502;2023-04-24T08:04:33;10.40;99.90
52555;DHT22;38455;52.710;6.502;2023-04-24T08:06:58;10.30;99.90
52555;DHT22;38455;52.710;6.502;2023-04-24T08:09:24;10.30;99.90
52555;DHT22;38455;52.710;6.502;2023-04-24T08:11:50;10.30;99.90
52555;DHT22;38455;52.710;6.502;2023-04-24T08:14:16;10.20;99.90
52555;DHT22;38455;52.710;6.502;2023-04-24T08:16:41;10.20;99.90
52555;DHT22;38455;52.710;6.502;2023-04-24T08:19:07;10.20;99.90
52555;DHT22;38455;52.710;6.502;2023-04-24T08:21:33;10.10;99.90
52555;DHT22;38455;52.710;6.502;2023-04-24T08:23:59;10.10;99.90
52555;DHT22;38455;52.710;6.502;2023-04-24T08:26:24;10.10;99.90
52555;DHT22;38455;52.710;6.502;2023-04-24T08:28:50;10.10;99.90
52555;DHT22;38455;52.710;6.502;2023-04-24T08:31:16;10.10;99.90
52555;DHT22;38455;52.710;6.502;2023-04-24T08:33:41;10.10;99.90
52555;DHT22;38455;52.710;6.502;2023-04-24T08:36:10;10.10;99.90
52555;DHT22;38455;52.710;6.502;2023-04-24T08:38:35;10.00;99.90
52555;DHT22;38455;52.710;6.502;2023-04-24T08:41:01;9.90;99.90
52555;DHT22;38455;52.710;6.502;2023-04-24T08:43:27;9.80;99.90
52555;DHT22;38455;52.710;6.502;2023-04-24T08:45:56;9.80;99.90
52555;DHT22;38455;52.710;6.502;2023-04-24T08:48:22;9.70;99.90
52555;DHT22;38455;52.710;6.502;2023-04-24T08:50:50;9.80;99.90
52555;DHT22;38455;52.710;6.502;2023-04-24T08:53:16;9.70;99.90
52555;DHT22;38455;52.710;6.502;2023-04-24T08:55:43;9.70;99.90
52555;DHT22;38455;52.710;6.502;2023-04-24T08:58:12;9.70;99.90
52555;DHT22;38455;52.710;6.502;2023-04-24T09:00:39;9.70;99.90
52555;DHT22;38455;52.710;6.502;2023-04-24T09:03:06;9.70;99.90
52555;DHT22;38455;52.710;6.502;2023-04-24T09:05:32;9.60;99.90
52555;DHT22;38455;52.710;6.502;2023-04-24T09:07:59;9.60;99.90
52555;DHT22;38455;52.710;6.502;2023-04-24T09:10:27;9.50;99.90
52555;DHT22;38455;52.710;6.502;2023-04-24T09:12:56;9.50;99.90
52555;DHT22;38455;52.710;6.502;2023-04-24T09:15:24;9.50;99.90
52555;DHT22;38455;52.710;6.502;2023-04-24T09:17:50;9.60;99.90
52555;DHT22;38455;52.710;6.502;2023-04-24T09:20:16;9.60;99.90
52555;DHT22;38455;52.710;6.502;2023-04-24T09:22:42;9.60;99.90
52555;DHT22;38455;52.710;6.502;2023-04-24T09:25:09;9.60;99.90
52555;DHT22;38455;52.710;6.502;2023-04-24T09:27:42;9.60;99.90
52555;DHT22;38455;52.710;6.502;2023-04-24T09:30:09;9.60;99.90
52555;DHT22;38455;52.710;6.502;2023-04-24T09:32:35;9.60;99.90
52555;DHT22;38455;52.710;6.502;2023-04-24T09:35:13;9.50;99.90
52555;DHT22;38455;52.710;6.502;2023-04-24T09:37:41;9.50;99.90
52555;DHT22;38455;52.710;6.502;2023-04-24T09:40:18;9.50;99.90
52555;DHT22;38455;52.710;6.502;2023-04-24T09:45:16;9.60;99.90
52555;DHT22;38455;52.710;6.502;2023-04-24T09:47:42;9.60;99.90
52555;DHT22;38455;52.710;6.502;2023-04-24T09:52:58;9.70;99.90
52555;DHT22;38455;52.710;6.502;2023-04-24T09:55:24;9.80;99.90
52555;DHT22;38455;52.710;6.502;2023-04-24T09:57:54;9.90;99.90
52555;DHT22;38455;52.710;6.502;2023-04-24T10:00:27;9.90;99.90
52555;DHT22;38455;52.710;6.502;2023-04-24T10:03:02;10.10;99.90
52555;DHT22;38455;52.710;6.502;2023-04-24T10:05:32;10.20;99.90
52555;DHT22;38455;52.710;6.502;2023-04-24T10:08:07;10.20;99.90
52555;DHT22;38455;52.710;6.502;2023-04-24T10:10:34;10.30;99.90
52555;DHT22;38455;52.710;6.502;2023-04-24T10:13:02;10.40;99.90
52555;DHT22;38455;52.710;6.502;2023-04-24T10:15:28;10.50;99.90
52555;DHT22;38455;52.710;6.502;2023-04-24T10:17:54;10.40;99.90
52555;DHT22;38455;52.710;6.502;2023-04-24T10:20:26;10.40;99.90
52555;DHT22;38455;52.710;6.502;2023-04-24T10:22:53;10.10;99.90
52555;DHT22;38455;52.710;6.502;2023-04-24T10:25:24;9.90;99.90
52555;DHT22;38455;52.710;6.502;2023-04-24T10:27:51;9.70;99.90
52555;DHT22;38455;52.710;6.502;2023-04-24T10:30:18;9.50;99.90
52555;DHT22;38455;52.710;6.502;2023-04-24T10:32:44;9.40;99.90
52555;DHT22;38455;52.710;6.502;2023-04-24T10:35:12;9.20;99.90
52555;DHT22;38455;52.710;6.502;2023-04-24T10:37:51;9.20;99.90
52555;DHT22;38455;52.710;6.502;2023-04-24T10:40:19;9.20;99.90
52555;DHT22;38455;52.710;6.502;2023-04-24T10:42:51;9.20;99.90
52555;DHT22;38455;52.710;6.502;2023-04-24T10:45:19;9.20;99.90
52555;DHT22;38455;52.710;6.502;2023-04-24T10:47:56;9.30;99.90
52555;DHT22;38455;52.710;6.502;2023-04-24T10:50:22;9.40;99.90
52555;DHT22;38455;52.710;6.502;2023-04-24T10:52:49;9.50;99.90
52555;DHT22;38455;52.710;6.502;2023-04-24T10:55:52;9.50;99.90
52555;DHT22;38455;52.710;6.502;2023-04-24T10:58:23;9.60;99.90
52555;DHT22;38455;52.710;6.502;2023-04-24T11:01:01;9.60;99.90
52555;DHT22;38455;52.710;6.502;2023-04-24T11:03:31;9.70;99.90
52555;DHT22;38455;52.710;6.502;2023-04-24T11:06:03;9.60;99.90
52555;DHT22;38455;52.710;6.502;2023-04-24T11:08:39;9.70;99.90
52555;DHT22;38455;52.710;6.502;2023-04-24T11:11:15;9.90;99.90
52555;DHT22;38455;52.710;6.502;2023-04-24T11:18:51;10.50;99.90
52555;DHT22;38455;52.710;6.502;2023-04-24T11:21:20;10.60;99.90
52555;DHT22;38455;52.710;6.502;2023-04-24T11:23:47;10.80;99.90
52555;DHT22;38455;52.710;6.502;2023-04-24T11:26:21;10.90;99.90
52555;DHT22;38455;52.710;6.502;2023-04-24T11:28:49;10.80;99.90
52555;DHT22;38455;52.710;6.502;2023-04-24T11:31:34;10.90;99.90
52555;DHT22;38455;52.710;6.502;2023-04-24T11:34:09;10.90;99.90
52555;DHT22;38455;52.710;6.502;2023-04-24T11:36:36;10.80;99.90
52555;DHT22;38455;52.710;6.502;2023-04-24T11:39:02;10.80;99.90
52555;DHT22;38455;52.710;6.502;2023-04-24T11:41:28;10.70;99.90
52555;DHT22;38455;52.710;6.502;2023-04-24T11:43:54;10.60;99.90
52555;DHT22;38455;52.710;6.502;2023-04-24T11:46:21;10.60;99.90
52555;DHT22;38455;52.710;6.502;2023-04-24T11:48:47;10.60;99.90
52555;DHT22;38455;52.710;6.502;2023-04-24T11:51:13;10.60;99.90
52555;DHT22;38455;52.710;6.502;2023-04-24T11:53:39;10.70;99.90
52555;DHT22;38455;52.710;6.502;2023-04-24T11:56:05;10.90;99.90
52555;DHT22;38455;52.710;6.502;2023-04-24T11:58:35;11.00;99.90
52555;DHT22;38455;52.710;6.502;2023-04-24T12:01:01;10.90;99.90
52555;DHT22;38455;52.710;6.502;2023-04-24T12:03:27;10.80;99.90
52555;DHT22;38455;52.710;6.502;2023-04-24T12:05:52;10.60;99.90
52555;DHT22;38455;52.710;6.502;2023-04-24T12:08:30;10.70;99.90
52555;DHT22;38455;52.710;6.502;2023-04-24T12:10:57;10.70;99.90
52555;DHT22;38455;52.710;6.502;2023-04-24T12:13:25;10.80;99.90
52555;DHT22;38455;52.710;6.502;2023-04-24T12:15:51;10.90;99.90
52555;DHT22;38455;52.710;6.502;2023-04-24T12:18:17;10.90;99.90
52555;DHT22;38455;52.710;6.502;2023-04-24T12:20:42;11.00;99.90
52555;DHT22;38455;52.710;6.502;2023-04-24T12:23:08;10.90;99.90
52555;DHT22;38455;52.710;6.502;2023-04-24T12:25:34;10.80;99.90
52555;DHT22;38455;52.710;6.502;2023-04-24T12:30:29;11.10;99.90
52555;DHT22;38455;52.710;6.502;2023-04-24T12:32:58;11.00;99.90
52555;DHT22;38455;52.710;6.502;2023-04-24T12:35:25;11.10;99.90
52555;DHT22;38455;52.710;6.502;2023-04-24T12:37:51;11.10;99.90
52555;DHT22;38455;52.710;6.502;2023-04-24T12:40:18;10.60;99.90
52555;DHT22;38455;52.710;6.502;2023-04-24T12:42:45;10.30;99.90
52555;DHT22;38455;52.710;6.502;2023-04-24T12:45:12;10.20;99.90
52555;DHT22;38455;52.710;6.502;2023-04-24T12:47:38;10.00;99.90
52555;DHT22;38455;52.710;6.502;2023-04-24T12:50:04;10.00;99.90
52555;DHT22;38455;52.710;6.502;2023-04-24T12:52:31;10.10;99.90
52555;DHT22;38455;52.710;6.502;2023-04-24T12:54:59;10.10;99.90
52555;DHT22;38455;52.710;6.502;2023-04-24T12:57:27;10.30;99.90
52555;DHT22;38455;52.710;6.502;2023-04-24T12:59:58;10.40;99.90
52555;DHT22;38455;52.710;6.502;2023-04-24T13:02:24;10.30;99.90
52555;DHT22;38455;52.710;6.502;2023-04-24T13:04:52;10.50;99.90
52555;DHT22;38455;52.710;6.502;2023-04-24T13:07:17;10.50;99.90
52555;DHT22;38455;52.710;6.502;2023-04-24T13:09:44;10.60;99.90
52555;DHT22;38455;52.710;6.502;2023-04-24T13:12:11;10.60;99.90
52555;DHT22;38455;52.710;6.502;2023-04-24T13:14:37;10.60;99.90
52555;DHT22;38455;52.710;6.502;2023-04-24T13:17:03;10.40;99.90
52555;DHT22;38455;52.710;6.502;2023-04-24T13:19:29;10.40;99.90
52555;DHT22;38455;52.710;6.502;2023-04-24T13:21:55;10.40;99.90
52555;DHT22;38455;52.710;6.502;2023-04-24T13:24:25;10.40;99.90
52555;DHT22;38455;52.710;6.502;2023-04-24T13:26:54;10.30;99.90
52555;DHT22;38455;52.710;6.502;2023-04-24T13:29:20;10.30;99.90
52555;DHT22;38455;52.710;6.502;2023-04-24T13:31:50;10.30;99.90
52555;DHT22;38455;52.710;6.502;2023-04-24T13:34:17;10.30;99.90
52555;DHT22;38455;52.710;6.502;2023-04-24T13:36:43;10.40;99.90
52555;DHT22;38455;52.710;6.502;2023-04-24T13:39:08;10.30;99.90
52555;DHT22;38455;52.710;6.502;2023-04-24T13:41:34;10.30;99.90
52555;DHT22;38455;52.710;6.502;2023-04-24T13:44:02;10.30;99.90
52555;DHT22;38455;52.710;6.502;2023-04-24T13:46:27;10.30;99.90
52555;DHT22;38455;52.710;6.502;2023-04-24T13:48:53;10.30;99.90
52555;DHT22;38455;52.710;6.502;2023-04-24T13:51:19;10.50;99.90
52555;DHT22;38455;52.710;6.502;2023-04-24T13:53:44;10.40;99.90
52555;DHT22;38455;52.710;6.502;2023-04-24T13:56:10;10.50;99.90
52555;DHT22;38455;52.710;6.502;2023-04-24T13:58:38;10.50;99.90
52555;DHT22;38455;52.710;6.502;2023-04-24T14:01:04;10.40;99.90
52555;DHT22;38455;52.710;6.502;2023-04-24T14:03:29;10.40;99.90
52555;DHT22;38455;52.710;6.502;2023-04-24T14:05:55;10.20;99.90
52555;DHT22;38455;52.710;6.502;2023-04-24T14:08:20;10.20;99.90
52555;DHT22;38455;52.710;6.502;2023-04-24T14:10:46;10.10;99.90
52555;DHT22;38455;52.710;6.502;2023-04-24T14:13:12;10.10;99.90
52555;DHT22;38455;52.710;6.502;2023-04-24T14:15:38;10.10;99.90
52555;DHT22;38455;52.710;6.502;2023-04-24T14:18:03;9.90;99.90
52555;DHT22;38455;52.710;6.502;2023-04-24T14:20:29;9.90;99.90
52555;DHT22;38455;52.710;6.502;2023-04-24T14:22:55;10.00;99.90
52555;DHT22;38455;52.710;6.502;2023-04-24T14:25:20;9.90;99.90
52555;DHT22;38455;52.710;6.502;2023-04-24T14:27:48;10.00;99.90
52555;DHT22;38455;52.710;6.502;2023-04-24T14:30:13;10.00;99.90
52555;DHT22;38455;52.710;6.502;2023-04-24T14:32:40;10.00;99.90
52555;DHT22;38455;52.710;6.502;2023-04-24T14:35:06;9.80;99.90
52555;DHT22;38455;52.710;6.502;2023-04-24T14:37:32;9.80;99.90
52555;DHT22;38455;52.710;6.502;2023-04-24T14:39:58;9.90;99.90
52555;DHT22;38455;52.710;6.502;2023-04-24T14:42:23;10.00;99.90
52555;DHT22;38455;52.710;6.502;2023-04-24T14:44:49;10.10;99.90
52555;DHT22;38455;52.710;6.502;2023-04-24T14:47:16;10.10;99.90
52555;DHT22;38455;52.710;6.502;2023-04-24T14:49:43;10.20;99.90
52555;DHT22;38455;52.710;6.502;2023-04-24T14:52:09;10.20;99.90
52555;DHT22;38455;52.710;6.502;2023-04-24T14:54:35;10.30;99.90
52555;DHT22;38455;52.710;6.502;2023-04-24T14:57:01;10.40;99.90
52555;DHT22;38455;52.710;6.502;2023-04-24T14:59:30;10.50;99.90
52555;DHT22;38455;52.710;6.502;2023-04-24T15:01:56;10.50;99.90
52555;DHT22;38455;52.710;6.502;2023-04-24T15:04:26;10.30;99.90
52555;DHT22;38455;52.710;6.502;2023-04-24T15:06:52;10.40;99.90
52555;DHT22;38455;52.710;6.502;2023-04-24T15:09:21;10.20;99.90
52555;DHT22;38455;52.710;6.502;2023-04-24T15:11:48;10.20;99.90
52555;DHT22;38455;52.710;6.502;2023-04-24T15:14:15;10.20;99.90
52555;DHT22;38455;52.710;6.502;2023-04-24T15:16:40;10.20;99.90
52555;DHT22;38455;52.710;6.502;2023-04-24T15:19:06;10.40;99.90
52555;DHT22;38455;52.710;6.502;2023-04-24T15:21:32;10.60;99.90
52555;DHT22;38455;52.710;6.502;2023-04-24T15:23:58;10.60;99.90
52555;DHT22;38455;52.710;6.502;2023-04-24T15:26:23;10.50;99.90
52555;DHT22;38455;52.710;6.502;2023-04-24T15:28:49;10.50;99.90
52555;DHT22;38455;52.710;6.502;2023-04-24T15:31:17;10.30;99.90
52555;DHT22;38455;52.710;6.502;2023-04-24T15:33:43;10.20;99.90
52555;DHT22;38455;52.710;6.502;2023-04-24T15:36:09;10.20;99.90
52555;DHT22;38455;52.710;6.502;2023-04-24T15:38:35;10.30;99.90
52555;DHT22;38455;52.710;6.502;2023-04-24T15:41:01;10.50;99.90
52555;DHT22;38455;52.710;6.502;2023-04-24T15:43:26;10.60;99.90
52555;DHT22;38455;52.710;6.502;2023-04-24T15:45:55;10.50;99.90
52555;DHT22;38455;52.710;6.502;2023-04-24T15:48:21;10.40;99.90